Time,TemperatureF,DewpointF,PressureIn,WindDirection,WindDirectionDegrees,WindSpeedMPH,WindSpeedGustMPH,Humidity,HourlyPrecipIn,Conditions,Clouds,dailyrainin,SolarRadiationWatts/m^2,SoftwareType,DateUTC
2013-09-14 00:02:00,68.0,39.0,-100.00,NW,324,9.0,14.0,35,0.00,,,0.00,0.000000,,2013-09-14 07:02:00,
2013-09-14 00:12:00,68.0,39.0,-100.00,NW,324,9.0,14.0,35,0.00,,,0.00,0.000000,,2013-09-14 07:12:00,
2013-09-14 00:21:00,68.0,39.0,-100.00,NW,324,9.0,14.0,35,0.00,,,0.00,0.000000,,2013-09-14 07:21:00,
2013-09-14 00:52:00,67.0,41.0,-100.00,NW,321,9.0,15.0,39,0.00,,,0.00,0.000000,,2013-09-14 07:52:00,
2013-09-14 01:02:00,67.0,41.0,-100.00,NW,321,9.0,15.0,39,0.00,,,0.00,0.000000,,2013-09-14 08:02:00,
2013-09-14 01:12:00,67.0,41.0,-100.00,NW,321,9.0,15.0,39,0.00,,,0.00,0.000000,,2013-09-14 08:12:00,
2013-09-14 01:21:00,67.0,41.0,-100.00,NW,321,9.0,15.0,39,0.00,,,0.00,0.000000,,2013-09-14 08:21:00,
2013-09-14 01:31:00,67.0,41.0,-100.00,NW,321,9.0,15.0,39,0.00,,,0.00,0.000000,,2013-09-14 08:31:00,
2013-09-14 01:52:00,68.0,41.0,-100.00,NW,306,6.0,14.0,38,0.00,,,0.00,0.000000,,2013-09-14 08:52:00,
2013-09-14 02:02:00,68.0,41.0,-100.00,NW,306,6.0,14.0,38,0.00,,,0.00,0.000000,,2013-09-14 09:02:00,
2013-09-14 02:12:00,68.0,41.0,-100.00,NW,306,6.0,14.0,38,0.00,,,0.00,0.000000,,2013-09-14 09:12:00,
2013-09-14 02:21:00,68.0,41.0,-100.00,NW,306,6.0,14.0,38,0.00,,,0.00,0.000000,,2013-09-14 09:21:00,
2013-09-14 02:33:00,68.0,41.0,-100.00,NW,306,6.0,14.0,38,0.00,,,0.00,0.000000,,2013-09-14 09:33:00,
2013-09-14 02:53:00,69.0,38.0,-100.00,NW,307,6.0,10.0,32,-99.99,,,0.00,0.000000,,2013-09-14 09:53:00,
2013-09-14 03:03:00,69.0,38.0,-100.00,NW,307,6.0,10.0,32,-99.99,,,0.00,0.000000,,2013-09-14 10:03:00,
2013-09-14 03:53:00,67.0,37.0,-100.00,WNW,285,8.0,13.0,33,-99.99,,,0.00,0.000000,,2013-09-14 10:53:00,
2013-09-14 04:02:00,67.0,37.0,-100.00,WNW,285,8.0,13.0,33,-99.99,,,0.00,0.000000,,2013-09-14 11:02:00,
2013-09-14 04:12:00,67.0,37.0,-100.00,WNW,285,8.0,13.0,33,-99.99,,,0.00,0.000000,,2013-09-14 11:12:00,
2013-09-14 04:52:00,67.0,38.0,-100.00,NW,309,8.0,13.0,35,-99.99,,,0.00,0.000000,,2013-09-14 11:52:00,
2013-09-14 05:02:00,67.0,38.0,-100.00,NW,309,8.0,13.0,35,-99.99,,,0.00,0.000000,,2013-09-14 12:02:00,
2013-09-14 05:52:00,67.0,36.0,-100.00,WNW,291,5.0,9.0,32,-99.99,,,-99.99,0.000000,,2013-09-14 12:52:00,
2013-09-14 06:01:00,67.0,36.0,-100.00,WNW,291,5.0,9.0,32,-99.99,,,-99.99,0.000000,,2013-09-14 13:01:00,
2013-09-14 06:52:00,67.0,40.0,-100.00,WSW,238,5.0,7.0,37,-99.99,,,0.00,0.000000,,2013-09-14 13:52:00,
2013-09-14 07:02:00,67.0,40.0,-100.00,WSW,238,5.0,7.0,37,-99.99,,,0.00,0.000000,,2013-09-14 14:02:00,
2013-09-14 07:11:00,67.0,40.0,-100.00,WSW,238,5.0,7.0,37,-99.99,,,0.00,0.000000,,2013-09-14 14:11:00,
2013-09-14 07:52:00,66.0,40.0,-100.00,WSW,239,4.0,6.0,39,-99.99,,,0.00,29.000000,,2013-09-14 14:52:00,
2013-09-14 08:02:00,66.0,40.0,-100.00,WSW,239,4.0,6.0,39,-99.99,,,0.00,29.000000,,2013-09-14 15:02:00,
2013-09-14 08:22:00,66.0,40.0,-100.00,WSW,239,4.0,6.0,39,-99.99,,,0.00,29.000000,,2013-09-14 15:22:00,
2013-09-14 08:33:00,66.0,40.0,-100.00,WSW,239,4.0,6.0,39,-99.99,,,0.00,29.000000,,2013-09-14 15:33:00,
2013-09-14 09:54:00,69.0,44.0,-100.00,SW,233,3.0,6.0,40,-99.99,,,0.00,204.000000,,2013-09-14 16:54:00,
2013-09-14 10:03:00,69.0,44.0,-100.00,SW,233,3.0,6.0,40,-99.99,,,0.00,204.000000,,2013-09-14 17:03:00,
2013-09-14 10:11:00,69.0,44.0,-100.00,SW,233,3.0,6.0,40,-99.99,,,0.00,204.000000,,2013-09-14 17:11:00,
2013-09-14 10:23:00,69.0,44.0,-100.00,SW,233,3.0,6.0,40,-99.99,,,0.00,204.000000,,2013-09-14 17:23:00,
2013-09-14 10:33:00,69.0,44.0,-100.00,SW,233,3.0,6.0,40,-99.99,,,0.00,204.000000,,2013-09-14 17:33:00,
2013-09-14 10:54:00,77.0,47.0,-100.00,SE,136,3.0,5.0,35,0.00,,,0.00,341.000000,,2013-09-14 17:54:00,
2013-09-14 11:02:00,77.0,47.0,-100.00,SE,136,3.0,5.0,35,0.00,,,0.00,341.000000,,2013-09-14 18:02:00,
2013-09-14 11:12:00,77.0,47.0,-100.00,SE,136,3.0,5.0,35,0.00,,,0.00,341.000000,,2013-09-14 18:12:00,
2013-09-14 11:21:00,77.0,47.0,-100.00,SE,136,3.0,5.0,35,0.00,,,0.00,341.000000,,2013-09-14 18:21:00,
2013-09-14 11:32:00,77.0,47.0,-100.00,SE,136,3.0,5.0,35,0.00,,,0.00,341.000000,,2013-09-14 18:32:00,
2013-09-14 11:52:00,79.0,44.0,-100.00,SSE,149,5.0,6.0,29,0.00,,,0.00,692.000000,,2013-09-14 18:52:00,
2013-09-14 12:02:00,79.0,44.0,-100.00,SSE,149,5.0,6.0,29,0.00,,,0.00,692.000000,,2013-09-14 19:02:00,
2013-09-14 12:11:00,79.0,44.0,-100.00,SSE,149,5.0,6.0,29,0.00,,,0.00,692.000000,,2013-09-14 19:11:00,
2013-09-14 12:22:00,79.0,44.0,-100.00,SSE,149,5.0,6.0,29,0.00,,,0.00,692.000000,,2013-09-14 19:22:00,
2013-09-14 12:32:00,79.0,44.0,-100.00,SSE,149,5.0,6.0,29,0.00,,,0.00,692.000000,,2013-09-14 19:32:00,
2013-09-14 12:52:00,80.0,46.0,-100.00,East,79,4.0,7.0,30,0.00,,,0.00,571.000000,,2013-09-14 19:52:00,
2013-09-14 13:02:00,80.0,46.0,-100.00,East,79,4.0,7.0,30,0.00,,,0.00,571.000000,,2013-09-14 20:02:00,
2013-09-14 13:12:00,80.0,46.0,-100.00,East,79,4.0,7.0,30,0.00,,,0.00,571.000000,,2013-09-14 20:12:00,
2013-09-14 13:22:00,80.0,46.0,-100.00,East,79,4.0,7.0,30,0.00,,,0.00,571.000000,,2013-09-14 20:22:00,
2013-09-14 13:32:00,80.0,46.0,-100.00,East,79,4.0,7.0,30,0.00,,,0.00,571.000000,,2013-09-14 20:32:00,
2013-09-14 13:52:00,82.0,45.0,-100.00,ESE,119,5.0,11.0,27,0.00,,,0.00,737.000000,,2013-09-14 20:52:00,
2013-09-14 14:02:00,82.0,45.0,-100.00,ESE,119,5.0,11.0,27,0.00,,,0.00,737.000000,,2013-09-14 21:02:00,
2013-09-14 14:11:00,82.0,45.0,-100.00,ESE,119,5.0,11.0,27,0.00,,,0.00,737.000000,,2013-09-14 21:11:00,
2013-09-14 14:22:00,82.0,45.0,-100.00,ESE,119,5.0,11.0,27,0.00,,,0.00,737.000000,,2013-09-14 21:22:00,
2013-09-14 14:32:00,82.0,45.0,-100.00,ESE,119,5.0,11.0,27,0.00,,,0.00,737.000000,,2013-09-14 21:32:00,
2013-09-14 14:34:00,84.0,41.0,-100.00,South,172,5.0,14.0,22,0.00,,,0.00,660.000000,,2013-09-14 21:34:00,
2013-09-14 14:54:00,84.0,41.0,-100.00,South,172,5.0,14.0,22,0.00,,,0.00,660.000000,,2013-09-14 21:54:00,
2013-09-14 15:04:00,84.0,41.0,-100.00,South,172,5.0,14.0,22,0.00,,,0.00,660.000000,,2013-09-14 22:04:00,
2013-09-14 15:13:00,84.0,41.0,-100.00,South,172,5.0,14.0,22,0.00,,,0.00,660.000000,,2013-09-14 22:13:00,
2013-09-14 15:24:00,84.0,41.0,-100.00,South,172,5.0,14.0,22,0.00,,,0.00,660.000000,,2013-09-14 22:24:00,
2013-09-14 15:34:00,84.0,43.0,-100.00,ESE,119,5.0,12.0,24,0.00,,,0.00,602.000000,,2013-09-14 22:34:00,
2013-09-14 15:53:00,84.0,43.0,-100.00,ESE,119,5.0,12.0,24,0.00,,,0.00,602.000000,,2013-09-14 22:53:00,
2013-09-14 16:03:00,84.0,43.0,-100.00,ESE,119,5.0,12.0,24,0.00,,,0.00,602.000000,,2013-09-14 23:03:00,
2013-09-14 16:11:00,84.0,43.0,-100.00,ESE,119,5.0,12.0,24,0.00,,,0.00,602.000000,,2013-09-14 23:11:00,
2013-09-14 16:23:00,84.0,43.0,-100.00,ESE,119,5.0,12.0,24,0.00,,,0.00,602.000000,,2013-09-14 23:23:00,
2013-09-14 16:53:00,81.0,42.0,-100.00,NE,45,7.0,14.0,25,0.00,,,0.00,273.000000,,2013-09-14 23:53:00,
2013-09-14 17:02:00,81.0,42.0,-100.00,NE,45,7.0,14.0,25,0.00,,,0.00,273.000000,,2013-09-15 00:02:00,
2013-09-14 17:12:00,81.0,42.0,-100.00,NE,45,7.0,14.0,25,0.00,,,0.00,273.000000,,2013-09-15 00:12:00,
2013-09-14 17:22:00,81.0,42.0,-100.00,NE,45,7.0,14.0,25,0.00,,,0.00,273.000000,,2013-09-15 00:22:00,
2013-09-14 17:31:00,81.0,42.0,-100.00,NE,45,7.0,14.0,25,0.00,,,0.00,273.000000,,2013-09-15 00:31:00,
2013-09-14 17:53:00,79.0,45.0,-100.00,NNE,32,15.0,19.0,30,0.00,,,0.00,65.000000,,2013-09-15 00:53:00,
2013-09-14 18:01:00,79.0,45.0,-100.00,NNE,32,15.0,19.0,30,0.00,,,0.00,65.000000,,2013-09-15 01:01:00,
2013-09-14 18:11:00,79.0,45.0,-100.00,NNE,32,15.0,19.0,30,0.00,,,0.00,65.000000,,2013-09-15 01:11:00,
2013-09-14 18:22:00,79.0,45.0,-100.00,NNE,32,15.0,19.0,30,0.00,,,0.00,65.000000,,2013-09-15 01:22:00,
2013-09-14 18:32:00,79.0,45.0,-100.00,NNE,32,15.0,19.0,30,0.00,,,0.00,65.000000,,2013-09-15 01:32:00,
2013-09-14 18:52:00,78.0,46.0,-100.00,NNE,32,15.0,22.0,32,0.00,,,0.00,89.000000,,2013-09-15 01:52:00,
2013-09-14 19:02:00,78.0,46.0,-100.00,NNE,32,15.0,22.0,32,0.00,,,0.00,89.000000,,2013-09-15 02:02:00,
2013-09-14 19:12:00,78.0,46.0,-100.00,NNE,32,15.0,22.0,32,0.00,,,0.00,89.000000,,2013-09-15 02:12:00,
2013-09-14 19:22:00,78.0,46.0,-100.00,NNE,32,15.0,22.0,32,0.00,,,0.00,89.000000,,2013-09-15 02:22:00,
2013-09-14 19:32:00,78.0,46.0,-100.00,NNE,32,15.0,22.0,32,0.00,,,0.00,89.000000,,2013-09-15 02:32:00,
2013-09-14 19:34:00,75.0,47.0,-100.00,NE,34,18.0,23.0,37,0.00,,,0.00,13.000000,,2013-09-15 02:34:00,
2013-09-14 19:52:00,75.0,47.0,-100.00,NE,34,18.0,23.0,37,0.00,,,0.00,13.000000,,2013-09-15 02:52:00,
2013-09-14 20:02:00,75.0,47.0,-100.00,NE,34,18.0,23.0,37,0.00,,,0.00,13.000000,,2013-09-15 03:02:00,
2013-09-14 20:11:00,75.0,47.0,-100.00,NE,34,18.0,23.0,37,0.00,,,0.00,13.000000,,2013-09-15 03:11:00,
2013-09-14 20:21:00,75.0,47.0,-100.00,NE,34,18.0,23.0,37,0.00,,,0.00,13.000000,,2013-09-15 03:21:00,
2013-09-14 20:55:00,74.0,48.0,-100.00,NNE,28,18.0,22.0,40,0.00,,,0.00,0.000000,,2013-09-15 03:55:00,
2013-09-14 21:02:00,-999.0,-99.9,-100.00,NNE,28,18.0,22.0,-999,-99.99,,,-99.99,0.000000,,2013-09-15 04:02:00,
2013-09-14 21:13:00,74.0,48.0,-100.00,NNE,28,18.0,22.0,40,0.00,,,0.00,0.000000,,2013-09-15 04:13:00,
2013-09-14 21:24:00,74.0,48.0,-100.00,NNE,28,18.0,22.0,40,0.00,,,0.00,0.000000,,2013-09-15 04:24:00,
2013-09-14 21:33:00,74.0,48.0,-100.00,NNE,28,18.0,22.0,40,0.00,,,0.00,0.000000,,2013-09-15 04:33:00,
2013-09-14 21:34:00,74.0,47.0,-100.00,NE,44,15.0,25.0,39,0.00,,,0.00,0.000000,,2013-09-15 04:34:00,
2013-09-14 21:54:00,74.0,47.0,-100.00,NE,44,15.0,25.0,39,0.00,,,0.00,0.000000,,2013-09-15 04:54:00,
2013-09-14 22:03:00,74.0,47.0,-100.00,NE,44,15.0,25.0,39,0.00,,,0.00,0.000000,,2013-09-15 05:03:00,
2013-09-14 22:13:00,74.0,47.0,-100.00,NE,44,15.0,25.0,39,0.00,,,0.00,0.000000,,2013-09-15 05:13:00,
2013-09-14 22:22:00,74.0,47.0,-100.00,NE,44,15.0,25.0,39,0.00,,,0.00,0.000000,,2013-09-15 05:22:00,
2013-09-14 22:52:00,74.0,49.0,-100.00,ENE,69,8.0,23.0,41,0.00,,,0.00,0.000000,,2013-09-15 05:52:00,
2013-09-14 23:02:00,74.0,49.0,-100.00,ENE,69,8.0,23.0,41,0.00,,,0.00,0.000000,,2013-09-15 06:02:00,
2013-09-14 23:12:00,74.0,49.0,-100.00,ENE,69,8.0,23.0,41,0.00,,,0.00,0.000000,,2013-09-15 06:12:00,
2013-09-14 23:21:00,74.0,49.0,-100.00,ENE,69,8.0,23.0,41,0.00,,,0.00,0.000000,,2013-09-15 06:21:00,
2013-09-14 23:32:00,74.0,49.0,-100.00,ENE,69,8.0,23.0,41,0.00,,,0.00,0.000000,,2013-09-15 06:32:00,
2013-09-14 23:52:00,74.0,46.0,-100.00,NE,52,9.0,14.0,37,0.00,,,0.00,0.000000,,2013-09-15 06:52:00,